Time;durP1;ratioP1;P1;durP2;ratioP2;P2;SDS_P1;SDS_P2;PMS_P1;PMS_P2;Temp;Humidity;BMP_temperature;BMP_pressure;BME280_temperature;BME280_humidity;BME280_pressure;Samples;Min_cycle;Max_cycle;Signal;HPM_P1;HPM_P2
2022/08/24 00:01:16;;;;;;;23.00;21.60;;;;;;;;;;5033003;28;20442;-83
2022/08/24 00:03:46;;;;;;;22.33;20.80;;;;;;;;;;5032528;28;20955;-83
2022/08/24 00:06:14;;;;;;;21.50;20.30;;;;;;;;;;5032652;28;20831;-83
2022/08/24 00:08:43;;;;;;;21.70;20.50;;;;;;;;;;5032690;28;20417;-82
2022/08/24 00:11:11;;;;;;;21.70;20.50;;;;;;;;;;5032524;28;20430;-82
2022/08/24 00:13:38;;;;;;;22.23;21.00;;;;;;;;;;5032884;28;20419;-83
2022/08/24 00:16:06;;;;;;;22.50;21.30;;;;;;;;;;5032472;28;20906;-83
2022/08/24 00:18:33;;;;;;;22.50;21.20;;;;;;;;;;5032904;28;20416;-83
2022/08/24 00:21:02;;;;;;;21.80;20.60;;;;;;;;;;5032509;28;20454;-83
2022/08/24 00:23:30;;;;;;;22.83;21.43;;;;;;;;;;5033970;28;20447;-82
2022/08/24 00:25:58;;;;;;;22.17;20.97;;;;;;;;;;5018575;28;20447;-82
2022/08/24 00:28:25;;;;;;;22.40;21.10;;;;;;;;;;5036737;28;20430;-83
2022/08/24 00:30:53;;;;;;;22.60;21.30;;;;;;;;;;5036696;28;20409;-83
2022/08/24 00:33:20;;;;;;;22.20;20.83;;;;;;;;;;5036705;28;20410;-82
2022/08/24 00:35:47;;;;;;;22.37;21.03;;;;;;;;;;5036194;28;20442;-83
2022/08/24 00:38:16;;;;;;;23.07;21.83;;;;;;;;;;5036399;28;20410;-83
2022/08/24 00:40:46;;;;;;;23.77;22.37;;;;;;;;;;5036571;28;20936;-83
2022/08/24 00:43:14;;;;;;;21.90;20.80;;;;;;;;;;5036479;28;20435;-83
2022/08/24 00:45:43;;;;;;;22.37;21.07;;;;;;;;;;5018349;28;20461;-83
2022/08/24 00:48:14;;;;;;;22.93;21.53;;;;;;;;;;5036469;28;20447;-82
2022/08/24 00:50:43;;;;;;;22.60;21.10;;;;;;;;;;5036520;28;20537;-83
2022/08/24 00:53:12;;;;;;;22.57;21.17;;;;;;;;;;5036234;28;20428;-82
2022/08/24 00:55:43;;;;;;;22.83;21.60;;;;;;;;;;5036027;28;20459;-83
2022/08/24 00:58:13;;;;;;;22.63;21.43;;;;;;;;;;5036116;28;20490;-83
2022/08/24 01:00:42;;;;;;;22.07;20.87;;;;;;;;;;5036154;28;20447;-83
2022/08/24 01:03:10;;;;;;;22.13;20.83;;;;;;;;;;5035802;28;20413;-83
2022/08/24 01:05:39;;;;;;;21.97;20.77;;;;;;;;;;5035659;28;20557;-83
2022/08/24 01:08:08;;;;;;;22.40;21.20;;;;;;;;;;5036012;28;20430;-82
2022/08/24 01:10:38;;;;;;;22.33;21.03;;;;;;;;;;5035663;28;20903;-82
2022/08/24 01:13:08;;;;;;;22.00;20.70;;;;;;;;;;5035717;28;20414;-82
2022/08/24 01:15:37;;;;;;;22.07;20.87;;;;;;;;;;5035483;28;20502;-82
2022/08/24 01:20:53;;;;;;;22.17;20.97;;;;;;;;;;5035833;28;20505;-83
2022/08/24 01:23:30;;;;;;;22.30;20.90;;;;;;;;;;5035850;28;20439;-82
2022/08/24 01:25:57;;;;;;;22.20;21.00;;;;;;;;;;5035147;28;20552;-82
2022/08/24 01:28:24;;;;;;;22.43;21.00;;;;;;;;;;5035649;28;20897;-83
2022/08/24 01:30:52;;;;;;;22.10;20.90;;;;;;;;;;5035501;28;20421;-83
2022/08/24 01:33:24;;;;;;;22.77;21.47;;;;;;;;;;5017887;28;20455;-83
2022/08/24 01:35:56;;;;;;;23.77;22.27;;;;;;;;;;5034260;28;20794;-83
2022/08/24 01:38:24;;;;;;;22.60;21.30;;;;;;;;;;5035186;28;20472;-82
2022/08/24 01:40:54;;;;;;;23.30;21.90;;;;;;;;;;5035279;28;20456;-83
2022/08/24 01:43:23;;;;;;;22.67;21.47;;;;;;;;;;5035546;28;21036;-83
2022/08/24 01:45:50;;;;;;;22.57;21.30;;;;;;;;;;5035512;28;20486;-82
2022/08/24 01:48:18;;;;;;;22.73;21.33;;;;;;;;;;5035011;28;20409;-82
2022/08/24 01:50:46;;;;;;;22.43;20.97;;;;;;;;;;5035240;28;20424;-82
2022/08/24 01:53:13;;;;;;;22.83;21.53;;;;;;;;;;5034765;28;21165;-83
2022/08/24 01:55:43;;;;;;;22.27;20.80;;;;;;;;;;5034648;28;20421;-82
2022/08/24 01:58:13;;;;;;;22.27;20.97;;;;;;;;;;5035044;28;20481;-83
2022/08/24 02:00:40;;;;;;;22.43;21.23;;;;;;;;;;5035119;28;20418;-83
2022/08/24 02:03:08;;;;;;;23.60;22.17;;;;;;;;;;5016981;28;20866;-83
2022/08/24 02:05:35;;;;;;;22.17;20.97;;;;;;;;;;5034840;28;20456;-82
2022/08/24 02:08:03;;;;;;;22.60;21.30;;;;;;;;;;5034999;28;20830;-83
2022/08/24 02:10:31;;;;;;;22.27;21.07;;;;;;;;;;5016946;28;20953;-81
2022/08/24 02:12:59;;;;;;;22.97;21.27;;;;;;;;;;5034724;28;20913;-83
2022/08/24 02:15:29;;;;;;;22.63;21.33;;;;;;;;;;5034138;28;20460;-82
2022/08/24 02:17:57;;;;;;;23.60;22.30;;;;;;;;;;5034604;28;20451;-83
2022/08/24 02:20:25;;;;;;;23.60;22.20;;;;;;;;;;5034474;28;20413;-82
2022/08/24 02:22:52;;;;;;;23.90;22.50;;;;;;;;;;5034729;28;20916;-83
2022/08/24 02:25:20;;;;;;;22.80;21.40;;;;;;;;;;5034307;28;20469;-82
2022/08/24 02:27:48;;;;;;;22.73;21.40;;;;;;;;;;5034621;28;20420;-83
2022/08/24 02:30:15;;;;;;;22.50;21.20;;;;;;;;;;5034260;28;20446;-82
2022/08/24 02:32:44;;;;;;;22.57;21.20;;;;;;;;;;5016646;28;20441;-83
2022/08/24 02:35:12;;;;;;;23.90;22.40;;;;;;;;;;5034092;28;20889;-83
2022/08/24 02:37:39;;;;;;;22.33;20.83;;;;;;;;;;5033948;28;20429;-83
2022/08/24 02:40:08;;;;;;;22.23;21.03;;;;;;;;;;5033944;28;20424;-82
2022/08/24 02:42:36;;;;;;;22.47;21.27;;;;;;;;;;5034225;28;20478;-83
2022/08/24 02:45:03;;;;;;;22.20;21.00;;;;;;;;;;5034305;28;20460;-82
2022/08/24 02:47:31;;;;;;;22.03;20.83;;;;;;;;;;5033270;28;20504;-82
2022/08/24 02:50:01;;;;;;;21.70;20.50;;;;;;;;;;5034080;28;20794;-83
2022/08/24 02:52:28;;;;;;;22.20;20.80;;;;;;;;;;5034012;28;20449;-82
2022/08/24 02:54:56;;;;;;;22.27;21.07;;;;;;;;;;5033799;28;20409;-83
2022/08/24 02:57:23;;;;;;;22.43;21.20;;;;;;;;;;5033564;28;20481;-83
2022/08/24 02:59:50;;;;;;;22.43;21.23;;;;;;;;;;5033895;28;20581;-83
2022/08/24 03:02:18;;;;;;;22.63;21.33;;;;;;;;;;5033592;28;20442;-82
2022/08/24 03:04:46;;;;;;;22.47;20.97;;;;;;;;;;5033862;28;20483;-83
2022/08/24 03:07:15;;;;;;;24.23;22.60;;;;;;;;;;5033742;28;20875;-82
2022/08/24 03:09:42;;;;;;;22.23;20.93;;;;;;;;;;5033582;28;20409;-83
2022/08/24 03:12:09;;;;;;;22.63;21.30;;;;;;;;;;5033649;28;20790;-82
2022/08/24 03:14:37;;;;;;;22.70;21.30;;;;;;;;;;5033265;28;20460;-82
2022/08/24 03:17:05;;;;;;;22.77;21.40;;;;;;;;;;5033544;28;20442;-83
2022/08/24 03:19:32;;;;;;;23.27;21.97;;;;;;;;;;5015974;28;20412;-83
2022/08/24 03:21:59;;;;;;;22.23;20.97;;;;;;;;;;5033893;28;20423;-82
2022/08/24 03:24:28;;;;;;;22.13;20.93;;;;;;;;;;5033293;28;20414;-82
2022/08/24 03:26:56;;;;;;;21.87;20.70;;;;;;;;;;5033083;28;20907;-82
2022/08/24 03:29:23;;;;;;;22.20;21.00;;;;;;;;;;5033572;28;20416;-82
2022/08/24 03:31:50;;;;;;;21.70;20.50;;;;;;;;;;5033485;28;20960;-82
2022/08/24 03:34:18;;;;;;;22.50;21.20;;;;;;;;;;5032908;28;20428;-83
2022/08/24 03:36:46;;;;;;;22.03;20.83;;;;;;;;;;5033155;28;20441;-83
2022/08/24 03:39:13;;;;;;;22.97;21.77;;;;;;;;;;5033277;28;20457;-82
2022/08/24 03:41:42;;;;;;;22.77;21.57;;;;;;;;;;5032843;28;21011;-82
2022/08/24 03:44:10;;;;;;;21.97;20.70;;;;;;;;;;5032862;28;20454;-83
2022/08/24 03:46:38;;;;;;;22.33;21.10;;;;;;;;;;5033074;28;20488;-82
2022/08/24 03:49:07;;;;;;;21.93;20.77;;;;;;;;;;5033025;28;20426;-83
2022/08/24 03:51:35;;;;;;;21.77;20.47;;;;;;;;;;5033091;28;20881;-82
2022/08/24 03:54:03;;;;;;;21.87;20.60;;;;;;;;;;5033154;28;20531;-83
2022/08/24 03:56:30;;;;;;;22.17;20.70;;;;;;;;;;5032726;28;20413;-83
2022/08/24 03:58:59;;;;;;;21.73;20.33;;;;;;;;;;5032433;28;20435;-82
2022/08/24 04:01:26;;;;;;;21.90;20.60;;;;;;;;;;5032887;28;20462;-82
2022/08/24 04:03:54;;;;;;;22.43;21.13;;;;;;;;;;5032708;28;20469;-83
2022/08/24 04:06:22;;;;;;;22.53;21.13;;;;;;;;;;5032733;28;20457;-82
2022/08/24 04:08:50;;;;;;;22.30;21.00;;;;;;;;;;5033007;28;20446;-83
2022/08/24 04:11:18;;;;;;;23.30;21.90;;;;;;;;;;5032473;28;20448;-82
2022/08/24 04:13:46;;;;;;;23.40;22.00;;;;;;;;;;5032990;28;20428;-83
2022/08/24 04:16:16;;;;;;;23.07;21.77;;;;;;;;;;5032339;28;20901;-83
2022/08/24 04:18:44;;;;;;;22.00;20.70;;;;;;;;;;5032518;28;20926;-83
2022/08/24 04:21:17;;;;;;;22.57;21.27;;;;;;;;;;5032586;28;20413;-83
2022/08/24 04:23:44;;;;;;;23.60;22.10;;;;;;;;;;5033035;28;20416;-82
2022/08/24 04:26:12;;;;;;;23.87;22.30;;;;;;;;;;5032555;28;20836;-83
2022/08/24 04:28:39;;;;;;;22.90;21.70;;;;;;;;;;5032613;28;20869;-83
2022/08/24 04:31:07;;;;;;;24.23;22.70;;;;;;;;;;5032455;28;20928;-82
2022/08/24 04:33:37;;;;;;;23.40;22.00;;;;;;;;;;5032359;28;20453;-83
2022/08/24 04:36:07;;;;;;;23.50;22.10;;;;;;;;;;5014720;28;20459;-83
2022/08/24 04:38:36;;;;;;;22.40;20.93;;;;;;;;;;5032658;28;20448;-82
2022/08/24 04:41:05;;;;;;;23.50;21.90;;;;;;;;;;5032429;28;20478;-83
2022/08/24 04:43:32;;;;;;;23.90;22.50;;;;;;;;;;5032681;28;20483;-82
2022/08/24 04:45:59;;;;;;;23.70;22.40;;;;;;;;;;5032210;28;20502;-83
2022/08/24 04:48:27;;;;;;;24.77;23.20;;;;;;;;;;5032588;28;20440;-83
2022/08/24 04:50:56;;;;;;;23.07;21.77;;;;;;;;;;5032793;28;20457;-83
2022/08/24 04:53:23;;;;;;;22.60;21.30;;;;;;;;;;5032344;28;20420;-83
2022/08/24 04:55:51;;;;;;;23.53;22.13;;;;;;;;;;5014590;28;20475;-82
2022/08/24 04:58:18;;;;;;;25.40;23.90;;;;;;;;;;5032290;28;20450;-85
2022/08/24 05:00:46;;;;;;;22.87;21.47;;;;;;;;;;5032337;28;20416;-82
2022/08/24 05:03:14;;;;;;;22.30;21.10;;;;;;;;;;5032474;28;20433;-83
2022/08/24 05:05:42;;;;;;;23.10;21.80;;;;;;;;;;5014686;28;20968;-83
2022/08/24 05:08:11;;;;;;;22.57;21.27;;;;;;;;;;5032522;28;20457;-83
2022/08/24 05:10:39;;;;;;;23.17;21.40;;;;;;;;;;5033735;28;20446;-82
2022/08/24 05:13:07;;;;;;;24.13;22.20;;;;;;;;;;5035754;28;20441;-82
2022/08/24 05:15:35;;;;;;;22.13;20.73;;;;;;;;;;5035519;28;20572;-82
2022/08/24 05:18:03;;;;;;;22.20;20.90;;;;;;;;;;5035889;28;20442;-82
2022/08/24 05:20:30;;;;;;;22.07;20.77;;;;;;;;;;5035762;28;20413;-82
2022/08/24 05:22:58;;;;;;;22.57;21.37;;;;;;;;;;5035517;28;20836;-82
2022/08/24 05:25:26;;;;;;;23.50;22.20;;;;;;;;;;5035145;28;20478;-82
2022/08/24 05:27:54;;;;;;;22.23;20.83;;;;;;;;;;5035669;28;20763;-82
2022/08/24 05:30:21;;;;;;;22.90;21.50;;;;;;;;;;5035666;28;20410;-82
2022/08/24 05:32:49;;;;;;;25.00;23.60;;;;;;;;;;5035692;28;20517;-82
2022/08/24 05:35:17;;;;;;;24.57;22.63;;;;;;;;;;5017466;28;20454;-82
2022/08/24 05:37:44;;;;;;;23.73;22.43;;;;;;;;;;5035434;28;20479;-82
2022/08/24 05:40:13;;;;;;;24.70;23.13;;;;;;;;;;5035539;28;20421;-82
2022/08/24 05:42:42;;;;;;;23.60;21.90;;;;;;;;;;5035366;28;20412;-82
2022/08/24 05:45:11;;;;;;;24.10;22.70;;;;;;;;;;5035221;28;20505;-82
2022/08/24 05:47:39;;;;;;;24.10;22.60;;;;;;;;;;5035075;28;20894;-82
2022/08/24 05:50:07;;;;;;;24.07;22.67;;;;;;;;;;5034850;28;20520;-82
2022/08/24 05:52:34;;;;;;;23.60;22.30;;;;;;;;;;5035182;28;20447;-82
2022/08/24 05:55:02;;;;;;;24.07;22.63;;;;;;;;;;5034716;28;20477;-82
2022/08/24 05:57:32;;;;;;;23.63;22.10;;;;;;;;;;5035141;28;20829;-82
2022/08/24 06:00:01;;;;;;;24.07;22.67;;;;;;;;;;5035062;28;20948;-82
2022/08/24 06:02:29;;;;;;;23.20;21.90;;;;;;;;;;5034730;28;20454;-83
2022/08/24 06:04:56;;;;;;;23.83;22.43;;;;;;;;;;5034760;28;20443;-83
2022/08/24 06:07:23;;;;;;;23.13;21.73;;;;;;;;;;5034789;28;21049;-82
2022/08/24 06:09:52;;;;;;;23.77;22.43;;;;;;;;;;5034923;28;20424;-82
2022/08/24 06:12:20;;;;;;;24.33;22.93;;;;;;;;;;5034847;28;20471;-82
2022/08/24 06:14:48;;;;;;;23.53;22.13;;;;;;;;;;5034501;28;20461;-82
2022/08/24 06:17:17;;;;;;;23.10;21.80;;;;;;;;;;5034409;28;20444;-82
2022/08/24 06:19:44;;;;;;;23.93;22.00;;;;;;;;;;5034454;28;20845;-82
2022/08/24 06:22:12;;;;;;;24.10;22.80;;;;;;;;;;5034527;28;20430;-82
2022/08/24 06:27:25;;;;;;;24.70;23.23;;;;;;;;;;5034526;28;20477;-82
2022/08/24 06:29:53;;;;;;;23.77;22.40;;;;;;;;;;5034492;28;20522;-82
2022/08/24 06:32:22;;;;;;;22.57;21.27;;;;;;;;;;5034149;28;20421;-82
2022/08/24 06:34:49;;;;;;;22.10;20.80;;;;;;;;;;5034243;28;20449;-83
2022/08/24 06:37:17;;;;;;;21.50;20.30;;;;;;;;;;5033996;28;20462;-82
2022/08/24 06:39:45;;;;;;;22.17;20.87;;;;;;;;;;5034240;28;20423;-82
2022/08/24 06:42:12;;;;;;;22.97;21.47;;;;;;;;;;5034290;28;20417;-82
2022/08/24 06:44:40;;;;;;;24.50;23.00;;;;;;;;;;5033912;28;20433;-82
2022/08/24 06:47:07;;;;;;;24.00;22.70;;;;;;;;;;5034052;28;20481;-82
2022/08/24 06:49:36;;;;;;;24.53;23.23;;;;;;;;;;5034073;28;20450;-82
2022/08/24 06:52:04;;;;;;;25.60;24.10;;;;;;;;;;5033821;28;20474;-83
2022/08/24 06:54:31;;;;;;;24.50;23.10;;;;;;;;;;5033732;28;20443;-82
2022/08/24 06:56:59;;;;;;;24.47;22.97;;;;;;;;;;5033436;28;20478;-83
2022/08/24 06:59:27;;;;;;;23.03;21.80;;;;;;;;;;5034048;28;20446;-81
2022/08/24 07:01:54;;;;;;;23.40;21.90;;;;;;;;;;5033668;28;20959;-82
2022/08/24 07:04:22;;;;;;;22.87;21.47;;;;;;;;;;5033479;28;20512;-82
2022/08/24 07:06:51;;;;;;;23.33;21.93;;;;;;;;;;5033671;28;20498;-82
2022/08/24 07:09:18;;;;;;;23.90;22.10;;;;;;;;;;5033313;28;20447;-82
2022/08/24 07:11:47;;;;;;;22.73;21.50;;;;;;;;;;5033908;28;20417;-82
2022/08/24 07:14:15;;;;;;;23.63;22.33;;;;;;;;;;5033681;28;20458;-82
2022/08/24 07:16:42;;;;;;;23.30;22.00;;;;;;;;;;5033428;28;20449;-83
2022/08/24 07:19:10;;;;;;;23.10;21.70;;;;;;;;;;5033273;28;20467;-81
2022/08/24 07:21:37;;;;;;;23.00;21.67;;;;;;;;;;5015630;28;20422;-82
2022/08/24 07:24:07;;;;;;;23.77;22.27;;;;;;;;;;5033535;28;20426;-82
2022/08/24 07:26:34;;;;;;;23.70;21.97;;;;;;;;;;5033204;28;20507;-82
2022/08/24 07:29:05;;;;;;;23.07;21.70;;;;;;;;;;5033459;28;20431;-81
2022/08/24 07:31:32;;;;;;;23.13;21.63;;;;;;;;;;5033014;28;20470;-82
2022/08/24 07:34:00;;;;;;;23.03;21.73;;;;;;;;;;5032909;28;20913;-81
2022/08/24 07:36:27;;;;;;;23.10;21.60;;;;;;;;;;5032958;28;20459;-81
2022/08/24 07:38:56;;;;;;;23.70;22.17;;;;;;;;;;5033291;28;20448;-82
2022/08/24 07:41:26;;;;;;;23.50;21.70;;;;;;;;;;5033329;28;20463;-82
2022/08/24 07:43:53;;;;;;;23.57;21.97;;;;;;;;;;5032859;28;20538;-82
2022/08/24 07:46:21;;;;;;;22.73;21.53;;;;;;;;;;5033011;28;20483;-82
2022/08/24 07:48:49;;;;;;;23.13;21.73;;;;;;;;;;5032970;28;20447;-82
2022/08/24 07:51:18;;;;;;;23.20;21.80;;;;;;;;;;5033164;28;20439;-82
2022/08/24 07:53:45;;;;;;;23.60;22.20;;;;;;;;;;5033074;28;20515;-82
2022/08/24 07:56:13;;;;;;;23.10;21.50;;;;;;;;;;5032597;28;20892;-82
2022/08/24 07:58:42;;;;;;;22.33;21.13;;;;;;;;;;5032615;28;20820;-82
2022/08/24 08:01:10;;;;;;;22.80;21.40;;;;;;;;;;5032611;28;20436;-81
2022/08/24 08:03:37;;;;;;;23.07;21.67;;;;;;;;;;5032873;28;20446;-82
2022/08/24 08:06:06;;;;;;;24.00;22.50;;;;;;;;;;5032720;28;20418;-82
2022/08/24 08:08:35;;;;;;;23.83;22.53;;;;;;;;;;5032951;28;20454;-82
2022/08/24 08:11:02;;;;;;;24.77;23.07;;;;;;;;;;5032872;28;20852;-82
2022/08/24 08:13:30;;;;;;;24.20;22.80;;;;;;;;;;5032796;28;20439;-82
2022/08/24 08:15:59;;;;;;;24.60;23.10;;;;;;;;;;5032556;28;20447;-82
2022/08/24 08:18:27;;;;;;;24.80;23.30;;;;;;;;;;5032636;28;20896;-82
2022/08/24 08:20:54;;;;;;;24.20;22.90;;;;;;;;;;5014904;28;20488;-81
2022/08/24 08:26:07;;;;;;;23.10;21.90;;;;;;;;;;5032505;28;20867;-82
2022/08/24 08:28:35;;;;;;;24.30;22.90;;;;;;;;;;5032747;28;20419;-82
2022/08/24 08:31:04;;;;;;;23.53;22.20;;;;;;;;;;5032733;28;20446;-82
2022/08/24 08:33:32;;;;;;;23.60;22.10;;;;;;;;;;5032639;28;20792;-81
2022/08/24 08:36:03;;;;;;;23.53;22.23;;;;;;;;;;5032298;28;20422;-82
2022/08/24 08:38:31;;;;;;;24.50;22.43;;;;;;;;;;5032431;28;20421;-81
2022/08/24 08:41:06;;;;;;;24.43;22.87;;;;;;;;;;5032638;28;20421;-82
2022/08/24 08:43:39;;;;;;;24.20;22.40;;;;;;;;;;4998479;28;20422;-82
2022/08/24 08:46:14;;;;;;;24.93;23.30;;;;;;;;;;5034709;28;20436;-82
2022/08/24 08:48:52;;;;;;;23.53;21.83;;;;;;;;;;5036060;28;20420;-81
2022/08/24 08:51:44;;;;;;;24.20;22.67;;;;;;;;;;5035947;28;20450;-81
2022/08/24 08:54:30;;;;;;;25.00;23.70;;;;;;;;;;5036147;28;20918;-82
2022/08/24 08:57:07;;;;;;;24.27;22.80;;;;;;;;;;5035669;28;20500;-81
2022/08/24 08:59:38;;;;;;;24.13;22.73;;;;;;;;;;5036346;28;20532;-82
2022/08/24 09:02:14;;;;;;;24.23;22.83;;;;;;;;;;5036300;28;20425;-81
2022/08/24 09:04:51;;;;;;;24.37;22.97;;;;;;;;;;5035999;28;20473;-82
2022/08/24 09:07:27;;;;;;;24.00;22.50;;;;;;;;;;5035591;28;20446;-82
2022/08/24 09:10:02;;;;;;;24.50;22.90;;;;;;;;;;5036087;28;20423;-82
2022/08/24 09:12:33;;;;;;;24.60;23.20;;;;;;;;;;5036050;28;20477;-82
2022/08/24 09:15:18;;;;;;;23.97;22.57;;;;;;;;;;5035650;28;20473;-82
2022/08/24 09:17:52;;;;;;;25.10;23.40;;;;;;;;;;5035895;28;20423;-81
2022/08/24 09:20:25;;;;;;;24.83;23.33;;;;;;;;;;5035395;28;20444;-82
2022/08/24 09:23:02;;;;;;;25.40;23.60;;;;;;;;;;5017925;28;20449;-82
2022/08/24 09:25:32;;;;;;;24.40;22.90;;;;;;;;;;5035189;28;20412;-82
2022/08/24 09:28:09;;;;;;;25.53;23.87;;;;;;;;;;5018150;28;20456;-82
2022/08/24 09:30:51;;;;;;;23.43;22.13;;;;;;;;;;5035225;28;20420;-82
2022/08/24 09:33:23;;;;;;;23.97;22.47;;;;;;;;;;5035759;28;20443;-82
2022/08/24 09:36:02;;;;;;;627.90;570.70;;;;;;;;;;5035399;28;20459;-81
2022/08/24 09:38:37;;;;;;;638.97;586.27;;;;;;;;;;5035407;28;20464;-82
2022/08/24 09:41:15;;;;;;;411.50;378.77;;;;;;;;;;5035315;28;20794;-82
2022/08/24 09:43:57;;;;;;;25.07;23.60;;;;;;;;;;5035038;28;20436;-82
2022/08/24 09:46:51;;;;;;;25.17;23.57;;;;;;;;;;5033805;28;20463;-82
2022/08/24 09:49:37;;;;;;;25.10;23.40;;;;;;;;;;4973929;28;20446;-81
2022/08/24 09:52:22;;;;;;;25.50;24.00;;;;;;;;;;4964715;28;20464;-82
2022/08/24 09:54:59;;;;;;;25.63;24.10;;;;;;;;;;4945472;28;20426;-81
2022/08/24 09:57:36;;;;;;;24.83;23.43;;;;;;;;;;4973402;28;20451;-81
2022/08/24 10:00:11;;;;;;;25.40;23.90;;;;;;;;;;4973459;28;20465;-82
2022/08/24 10:02:50;;;;;;;24.50;23.10;;;;;;;;;;4973780;28;20483;-82
2022/08/24 10:05:23;;;;;;;26.27;24.67;;;;;;;;;;4973794;28;20433;-81
2022/08/24 10:07:51;;;;;;;24.63;23.13;;;;;;;;;;4973571;28;20470;-81
2022/08/24 10:10:38;;;;;;;24.87;23.40;;;;;;;;;;4957383;28;20516;-81
2022/08/24 10:13:11;;;;;;;24.70;23.10;;;;;;;;;;4973677;28;20435;-82
2022/08/24 10:15:46;;;;;;;24.30;22.87;;;;;;;;;;4973341;28;20529;-82
2022/08/24 10:18:24;;;;;;;25.40;23.80;;;;;;;;;;4973427;28;20430;-82
2022/08/24 10:21:03;;;;;;;25.70;24.03;;;;;;;;;;4973572;28;20454;-82
2022/08/24 10:23:36;;;;;;;24.70;23.20;;;;;;;;;;4973236;28;20444;-81
2022/08/24 10:26:12;;;;;;;25.10;23.40;;;;;;;;;;5011173;28;20433;-82
2022/08/24 10:28:53;;;;;;;24.77;23.27;;;;;;;;;;5016397;28;20487;-82
2022/08/24 10:31:23;;;;;;;24.73;23.23;;;;;;;;;;5034160;28;20484;-81
2022/08/24 10:33:59;;;;;;;24.13;22.60;;;;;;;;;;5034342;28;20458;-81
2022/08/24 10:36:45;;;;;;;24.47;22.93;;;;;;;;;;5034189;28;20954;-82
2022/08/24 10:39:41;;;;;;;25.17;23.57;;;;;;;;;;5034322;28;20413;-82
2022/08/24 10:45:28;;;;;;;24.30;22.80;;;;;;;;;;5034238;28;20410;-82
2022/08/24 10:48:05;;;;;;;24.33;22.87;;;;;;;;;;5033768;28;20479;-82
2022/08/24 10:50:39;;;;;;;25.23;23.60;;;;;;;;;;5034046;28;20428;-82
2022/08/24 10:53:15;;;;;;;25.43;23.70;;;;;;;;;;5033641;28;21023;-81
2022/08/24 10:55:43;;;;;;;26.00;24.37;;;;;;;;;;5033739;28;20481;-82
2022/08/24 10:58:14;;;;;;;25.00;23.60;;;;;;;;;;5033701;28;20475;-81
2022/08/24 11:00:43;;;;;;;25.03;23.47;;;;;;;;;;5034039;28;20447;-82
2022/08/24 11:03:13;;;;;;;23.07;21.63;;;;;;;;;;5033625;28;20413;-82
2022/08/24 11:05:44;;;;;;;24.80;23.30;;;;;;;;;;5033616;28;20442;-81
2022/08/24 11:08:18;;;;;;;26.37;24.13;;;;;;;;;;5033131;28;20460;-82
2022/08/24 11:10:46;;;;;;;25.47;23.73;;;;;;;;;;5033437;28;20414;-82
2022/08/24 11:13:15;;;;;;;458.60;424.73;;;;;;;;;;5015611;28;20480;-82
2022/08/24 11:15:50;;;;;;;706.47;649.80;;;;;;;;;;5033395;28;20498;-82
2022/08/24 11:18:18;;;;;;;717.97;660.90;;;;;;;;;;5033213;28;20451;-82
2022/08/24 11:20:47;;;;;;;721.67;664.93;;;;;;;;;;5033475;28;20457;-82
2022/08/24 11:23:16;;;;;;;735.63;678.13;;;;;;;;;;5033470;28;20440;-82
2022/08/24 11:25:52;;;;;;;752.20;693.33;;;;;;;;;;5033026;28;20944;-82
2022/08/24 11:28:21;;;;;;;744.27;690.80;;;;;;;;;;5033334;28;21043;-81
2022/08/24 11:30:50;;;;;;;656.50;607.50;;;;;;;;;;5033112;28;20428;-82
2022/08/24 11:33:26;;;;;;;754.20;698.53;;;;;;;;;;5033259;28;20434;-82
2022/08/24 11:35:53;;;;;;;24.30;22.87;;;;;;;;;;5033276;28;20443;-82
2022/08/24 11:38:26;;;;;;;24.93;23.20;;;;;;;;;;5015784;28;20418;-82
2022/08/24 11:40:56;;;;;;;24.97;23.57;;;;;;;;;;5033165;28;20422;-82
2022/08/24 11:43:27;;;;;;;24.77;23.27;;;;;;;;;;5032845;28;20896;-82
2022/08/24 11:46:04;;;;;;;25.63;24.07;;;;;;;;;;5033128;28;20948;-81
2022/08/24 11:48:36;;;;;;;25.27;23.67;;;;;;;;;;5033101;28;20453;-82
2022/08/24 11:51:08;;;;;;;25.40;23.83;;;;;;;;;;5032672;28;20455;-82
2022/08/24 11:53:40;;;;;;;24.00;22.50;;;;;;;;;;5033023;28;20422;-81
2022/08/24 11:56:11;;;;;;;24.60;23.10;;;;;;;;;;5032415;28;20455;-81
2022/08/24 11:58:43;;;;;;;24.87;23.47;;;;;;;;;;5032954;28;20453;-82
2022/08/24 12:01:16;;;;;;;24.03;22.53;;;;;;;;;;5032521;28;20450;-81
2022/08/24 12:03:46;;;;;;;25.40;23.60;;;;;;;;;;5033015;28;20425;-82
2022/08/24 12:06:19;;;;;;;24.73;23.03;;;;;;;;;;5032577;28;20430;-82
2022/08/24 12:08:50;;;;;;;25.00;23.40;;;;;;;;;;5032559;28;20507;-82
2022/08/24 12:11:22;;;;;;;25.10;23.50;;;;;;;;;;5032512;28;20443;-81
2022/08/24 12:13:55;;;;;;;25.27;23.57;;;;;;;;;;5032979;28;20427;-81
2022/08/24 12:16:29;;;;;;;25.33;23.63;;;;;;;;;;5032328;28;20494;-82
2022/08/24 12:18:59;;;;;;;25.50;23.70;;;;;;;;;;5033239;28;20803;-81
2022/08/24 12:21:28;;;;;;;24.47;23.07;;;;;;;;;;5036631;28;20439;-81
2022/08/24 12:23:58;;;;;;;24.73;23.13;;;;;;;;;;5036835;28;20447;-81
2022/08/24 12:26:27;;;;;;;24.20;22.80;;;;;;;;;;5018690;28;20518;-81
2022/08/24 12:28:57;;;;;;;25.17;23.67;;;;;;;;;;5036364;28;20486;-81
2022/08/24 12:31:31;;;;;;;26.30;24.60;;;;;;;;;;5036340;28;20765;-82
2022/08/24 12:34:00;;;;;;;24.77;23.27;;;;;;;;;;5036530;28;20461;-82
2022/08/24 12:36:29;;;;;;;25.20;23.40;;;;;;;;;;5036287;28;20439;-81
2022/08/24 12:39:02;;;;;;;25.73;24.00;;;;;;;;;;5036213;28;20845;-82
2022/08/24 12:41:32;;;;;;;25.43;23.73;;;;;;;;;;5036437;28;20442;-81
2022/08/24 12:44:03;;;;;;;25.43;23.70;;;;;;;;;;5036545;28;20414;-81
2022/08/24 12:46:31;;;;;;;23.33;21.93;;;;;;;;;;5036189;28;20418;-82
2022/08/24 12:49:01;;;;;;;24.87;22.90;;;;;;;;;;5036433;28;20483;-81
2022/08/24 12:51:40;;;;;;;24.33;22.93;;;;;;;;;;5036070;28;20443;-81
2022/08/24 12:54:23;;;;;;;24.90;23.30;;;;;;;;;;5035992;28;20436;-81
2022/08/24 12:57:13;;;;;;;24.47;22.77;;;;;;;;;;5036029;28;20468;-82
2022/08/24 12:59:43;;;;;;;24.70;23.30;;;;;;;;;;5036231;28;20878;-81
2022/08/24 13:05:10;;;;;;;26.40;24.80;;;;;;;;;;5110534;27;20596;-81
2022/08/24 13:07:41;;;;;;;25.60;24.10;;;;;;;;;;5109318;28;20504;-80
2022/08/24 13:10:12;;;;;;;26.10;24.37;;;;;;;;;;5110768;28;20408;-81
2022/08/24 13:12:55;;;;;;;25.53;24.07;;;;;;;;;;5110416;28;20461;-82
2022/08/24 13:15:40;;;;;;;25.70;23.80;;;;;;;;;;5110714;28;20407;-82
2022/08/24 13:18:22;;;;;;;24.00;22.60;;;;;;;;;;5110042;28;20430;-81
2022/08/24 13:20:56;;;;;;;25.00;23.40;;;;;;;;;;5110174;28;20432;-82
2022/08/24 13:23:26;;;;;;;24.27;22.77;;;;;;;;;;5110452;28;20455;-81
2022/08/24 13:25:55;;;;;;;24.70;23.30;;;;;;;;;;5109889;28;20949;-81
2022/08/24 13:28:36;;;;;;;26.53;24.67;;;;;;;;;;5110400;28;20553;-81
2022/08/24 13:31:22;;;;;;;24.53;23.03;;;;;;;;;;5110338;28;20411;-82
2022/08/24 13:33:50;;;;;;;25.50;23.90;;;;;;;;;;5110339;28;20433;-81
2022/08/24 13:36:47;;;;;;;25.20;23.70;;;;;;;;;;5110245;28;20441;-81
2022/08/24 13:39:29;;;;;;;24.77;23.37;;;;;;;;;;5109880;28;20443;-81
2022/08/24 13:42:07;;;;;;;25.27;23.87;;;;;;;;;;5097895;28;20444;-81
2022/08/24 13:44:47;;;;;;;24.93;23.43;;;;;;;;;;5110033;28;20454;-81
2022/08/24 13:47:17;;;;;;;25.30;23.87;;;;;;;;;;5109829;28;20417;-81
2022/08/24 13:49:54;;;;;;;24.87;23.47;;;;;;;;;;5109984;28;20424;-82
2022/08/24 13:52:28;;;;;;;24.77;23.20;;;;;;;;;;5109862;28;20406;-82
2022/08/24 13:55:04;;;;;;;26.37;24.67;;;;;;;;;;5109769;28;20480;-80
2022/08/24 13:57:42;;;;;;;25.20;23.70;;;;;;;;;;5109443;28;20452;-81
2022/08/24 14:00:17;;;;;;;25.50;23.90;;;;;;;;;;5109446;28;20994;-82
2022/08/24 14:02:54;;;;;;;25.10;23.40;;;;;;;;;;5109392;28;20436;-81
2022/08/24 14:05:27;;;;;;;25.50;24.00;;;;;;;;;;5109376;28;20447;-81
2022/08/24 14:07:57;;;;;;;25.63;23.83;;;;;;;;;;5109650;28;20439;-81
2022/08/24 14:10:34;;;;;;;26.43;24.63;;;;;;;;;;5109644;28;20490;-82
2022/08/24 14:13:06;;;;;;;26.73;24.97;;;;;;;;;;5109161;28;20436;-81
2022/08/24 14:15:46;;;;;;;25.30;23.80;;;;;;;;;;5100759;28;20418;-82
2022/08/24 14:18:14;;;;;;;26.07;24.40;;;;;;;;;;5095567;28;20776;-81
2022/08/24 14:20:49;;;;;;;26.17;24.67;;;;;;;;;;5095540;28;20765;-81
2022/08/24 14:23:24;;;;;;;25.43;23.83;;;;;;;;;;5095299;28;20458;-81
2022/08/24 14:25:51;;;;;;;25.47;23.97;;;;;;;;;;5095408;28;20414;-81
2022/08/24 14:28:40;;;;;;;25.50;23.90;;;;;;;;;;5095645;28;20436;-81
2022/08/24 14:31:16;;;;;;;24.57;23.07;;;;;;;;;;5090488;28;20448;-80
2022/08/24 14:33:48;;;;;;;24.37;22.77;;;;;;;;;;5095276;28;20436;-81
2022/08/24 14:36:19;;;;;;;26.37;24.77;;;;;;;;;;5095549;28;20443;-80
2022/08/24 14:38:52;;;;;;;25.33;23.93;;;;;;;;;;5095235;28;20488;-81
2022/08/24 14:41:42;;;;;;;25.93;24.43;;;;;;;;;;5095364;28;20450;-80
2022/08/24 14:44:19;;;;;;;25.33;23.93;;;;;;;;;;5094991;28;20459;-81
2022/08/24 14:47:03;;;;;;;26.53;24.37;;;;;;;;;;5095324;28;20452;-81
2022/08/24 14:49:35;;;;;;;25.90;24.23;;;;;;;;;;5094966;28;20450;-81
2022/08/24 14:52:18;;;;;;;25.70;24.20;;;;;;;;;;5095294;28;20418;-81